createdAt,value
2018-12-09T04:59:45.125Z,98225.02
2018-12-09T05:02:30.874Z,98241.00
2018-12-09T05:17:33.473Z,98240.86
2018-12-09T05:57:10.160Z,98257.47
2018-12-09T06:12:24.265Z,98277.42
2018-12-09T06:24:18.055Z,98295.00
2018-12-09T07:10:04.776Z,98339.16
2018-12-09T07:25:13.154Z,98356.41
2018-12-09T07:30:49.946Z,98347.43
2018-12-09T07:33:19.685Z,98351.77
2018-12-09T07:35:49.441Z,98366.13
2018-12-09T07:38:18.822Z,98366.33
2018-12-09T07:40:48.585Z,98371.55
2018-12-09T07:43:18.369Z,98386.54
2018-12-09T07:45:48.223Z,98378.47
2018-12-09T07:48:17.768Z,98388.30
2018-12-09T07:51:12.029Z,98378.47
2018-12-09T07:53:51.119Z,98392.48
2018-12-09T08:08:35.100Z,98405.78
2018-12-09T08:17:16.025Z,98412.85
2018-12-09T08:19:48.877Z,98424.23
2018-12-09T08:22:33.473Z,98423.59
2018-12-09T08:25:03.361Z,98422.48
2018-12-09T08:27:33.454Z,98424.69
2018-12-09T08:30:03.220Z,98422.26
2018-12-09T08:32:32.888Z,98447.81
2018-12-09T08:35:02.272Z,98440.77
2018-12-09T08:37:32.429Z,98439.93
2018-12-09T09:08:00.917Z,98476.98
2018-12-09T09:23:07.250Z,98477.70
2018-12-09T09:25:36.911Z,98483.05
2018-12-09T09:28:06.636Z,98477.23
2018-12-09T09:30:35.972Z,98474.72
2018-12-09T09:33:05.500Z,98486.60
2018-12-09T09:35:35.221Z,98478.63
2018-12-09T09:38:05.106Z,98484.69
2018-12-09T09:40:34.809Z,98481.66
2018-12-09T09:43:04.195Z,98474.73
2018-12-09T09:45:34.087Z,98493.86
2018-12-09T09:48:12.131Z,98498.36
2018-12-09T09:54:07.395Z,98492.16
2018-12-09T09:58:15.230Z,98495.25
2018-12-09T10:00:52.726Z,98505.75
2018-12-09T10:03:28.515Z,98506.67
2018-12-09T10:06:01.982Z,98519.09
2018-12-09T10:08:39.087Z,98519.95
2018-12-09T11:01:45.858Z,98561.80
2018-12-09T11:04:21.188Z,98559.91
2018-12-09T11:06:54.075Z,98552.92
2018-12-09T11:12:28.885Z,98555.06
2018-12-09T11:15:10.051Z,98553.18
2018-12-09T11:17:51.771Z,98556.07
2018-12-09T11:20:24.968Z,98561.95
2018-12-09T11:25:51.709Z,98570.42
2018-12-09T11:28:24.513Z,98567.52
2018-12-09T11:30:57.043Z,98570.80
2018-12-09T11:33:32.308Z,98586.27
2018-12-09T11:36:10.013Z,98583.45
2018-12-09T11:38:43.520Z,98586.36
2018-12-09T11:41:16.836Z,98586.30
2018-12-09T11:43:58.417Z,98595.33
2018-12-09T11:46:27.870Z,98592.72
2018-12-09T11:48:57.395Z,98600.13
2018-12-09T11:51:30.831Z,98596.52
2018-12-09T11:54:06.164Z,98599.69
2018-12-09T11:56:41.324Z,98602.62
2018-12-09T11:59:23.132Z,98601.36
2018-12-09T12:05:09.683Z,98593.33
2018-12-09T12:17:05.886Z,98601.42
2018-12-09T14:50:19.201Z,98818.70
2018-12-09T14:52:52.497Z,98809.59
2018-12-09T15:01:33.118Z,98818.77
2018-12-09T15:04:19.413Z,98821.77
2018-12-09T15:06:52.425Z,98828.51
2018-12-09T15:12:21.954Z,98831.20
2018-12-09T15:15:04.509Z,98835.06
2018-12-09T15:17:52.778Z,98836.09
2018-12-09T15:20:38.043Z,98841.34
2018-12-09T15:29:13.517Z,98857.27
2018-12-09T15:38:02.860Z,98854.23
2018-12-09T15:50:08.031Z,98853.47
2018-12-09T15:55:38.193Z,98851.66
2018-12-09T15:58:08.083Z,98850.89
2018-12-09T16:00:41.779Z,98849.89
2018-12-09T16:03:11.198Z,98859.50
2018-12-09T16:05:41.606Z,98865.85
2018-12-09T16:08:11.355Z,98863.00
2018-12-09T16:10:40.767Z,98873.48
2018-12-09T16:13:22.519Z,98867.19
2018-12-09T16:28:05.703Z,98880.77
2018-12-09T16:30:35.381Z,98883.89
2018-12-09T16:42:36.204Z,98903.47
2018-12-09T16:45:09.802Z,98906.25
2018-12-09T16:50:47.665Z,98915.46
2018-12-09T17:02:53.885Z,98936.95
2018-12-09T17:05:24.162Z,98939.30
2018-12-09T17:07:53.612Z,98936.42
2018-12-09T17:10:23.144Z,98953.83
2018-12-09T17:13:07.169Z,98947.91
2018-12-09T17:15:36.553Z,98949.09
2018-12-09T17:18:11.313Z,98954.48
2018-12-09T17:20:41.303Z,98959.15
2018-12-09T17:23:10.664Z,98960.83
2018-12-09T17:25:40.449Z,98965.77
2018-12-09T17:31:19.053Z,98972.21
2018-12-09T17:33:48.450Z,98974.80
2018-12-09T17:55:55.533Z,98975.94
2018-12-09T17:58:45.014Z,98974.56
2018-12-09T18:04:09.187Z,98984.50
2018-12-09T18:07:00.095Z,98986.51
2018-12-09T18:09:31.945Z,99005.55
2018-12-09T18:38:33.946Z,99043.59
2018-12-09T19:00:15.125Z,99093.13
2018-12-09T19:05:56.733Z,99024.73
2018-12-09T19:08:45.434Z,99096.55
2018-12-09T19:14:45.705Z,99106.89
2018-12-09T19:26:41.627Z,99124.20
2018-12-09T19:32:12.649Z,99129.76
2018-12-09T19:37:42.975Z,99148.02
2018-12-09T19:40:13.927Z,99147.49
2018-12-09T19:42:50.031Z,99146.87
2018-12-09T19:45:20.241Z,99152.70
2018-12-09T19:47:53.299Z,99158.67
2018-12-09T19:50:34.689Z,99150.73
2018-12-09T19:53:10.213Z,99160.07
2018-12-09T19:55:39.657Z,99163.89
2018-12-09T19:58:09.454Z,99168.41
2018-12-09T20:07:00.679Z,99160.89
2018-12-09T20:09:31.780Z,99181.79
2018-12-09T20:12:06.937Z,99186.92
2018-12-09T20:14:36.818Z,99203.22
2018-12-09T20:17:06.256Z,99203.22
2018-12-09T20:19:57.424Z,99204.70
2018-12-09T20:22:27.308Z,99209.81
2018-12-09T20:24:56.832Z,99207.58
2018-12-09T20:27:27.957Z,99222.32
2018-12-09T20:29:57.953Z,99216.19
2018-12-09T20:32:35.051Z,99224.73
2018-12-09T20:34:59.453Z,99223.34
2018-12-09T20:37:29.297Z,99226.88
2018-12-09T20:40:01.512Z,99230.75
2018-12-09T20:42:31.242Z,99238.41
2018-12-09T20:45:01.099Z,99241.04
2018-12-09T20:47:30.792Z,99240.26
2018-12-09T20:50:00.490Z,99241.77
2018-12-09T20:52:29.875Z,99255.56
2018-12-09T20:55:00.137Z,99258.56
2018-12-09T20:57:31.216Z,99264.73
2018-12-09T21:00:01.236Z,99270.82
2018-12-09T21:02:30.671Z,99274.22
2018-12-09T21:05:00.537Z,99277.80
2018-12-09T21:07:30.465Z,99274.30
2018-12-09T21:09:59.954Z,99275.47
2018-12-09T21:12:30.262Z,99274.61
2018-12-09T21:15:00.363Z,99278.81
2018-12-09T21:17:30.239Z,99288.07
2018-12-09T21:20:00.231Z,99292.35
2018-12-09T21:22:29.947Z,99294.57
2018-12-09T21:24:59.711Z,99309.23
2018-12-09T21:27:29.436Z,99296.56
2018-12-09T21:29:58.835Z,99304.54
2018-12-09T21:32:28.916Z,99303.56
2018-12-09T21:34:58.912Z,99305.44
2018-12-09T21:37:29.479Z,99317.25
2018-12-09T21:39:59.377Z,99310.97
2018-12-09T21:42:29.910Z,99322.70
2018-12-09T21:45:00.174Z,99327.06
2018-12-09T21:47:29.890Z,99311.45
2018-12-09T21:49:59.722Z,99322.80
2018-12-09T21:52:29.581Z,99334.84
2018-12-09T21:54:59.306Z,99328.91
2018-12-09T21:57:28.754Z,99338.95
2018-12-09T21:59:58.320Z,99348.40
2018-12-09T22:02:28.021Z,99343.55
2018-12-09T22:04:57.428Z,99350.62
2018-12-09T22:07:27.460Z,99362.49
2018-12-09T22:09:57.123Z,99361.63
2018-12-09T22:12:50.923Z,99371.66
2018-12-09T22:15:20.943Z,99375.72
2018-12-09T22:17:50.649Z,99373.43
2018-12-09T22:20:20.643Z,99373.84
2018-12-09T22:22:50.387Z,99390.84
2018-12-09T22:25:19.727Z,99378.94
2018-12-09T22:27:49.095Z,99396.42
2018-12-09T22:30:18.825Z,99392.05
2018-12-09T22:32:48.565Z,99390.25
2018-12-09T22:35:18.227Z,99407.98
2018-12-09T22:37:47.584Z,99398.64
2018-12-09T22:40:17.340Z,99413.14
2018-12-09T22:42:47.092Z,99418.06
2018-12-09T22:45:16.405Z,99422.01
2018-12-09T22:47:46.090Z,99429.11
2018-12-09T22:50:15.740Z,99432.98
2018-12-09T22:52:45.338Z,99438.53
2018-12-09T22:55:15.120Z,99448.67
2018-12-09T22:57:44.442Z,99437.63
2018-12-09T23:00:30.806Z,99438.98
2018-12-09T23:03:04.043Z,99442.55
2018-12-09T23:05:33.889Z,99441.33
2018-12-09T23:08:03.576Z,99450.19
2018-12-09T23:10:33.025Z,99451.41
2018-12-09T23:13:02.712Z,99457.12
2018-12-09T23:15:32.517Z,99472.37
2018-12-09T23:18:02.237Z,99464.14
2018-12-09T23:20:31.915Z,99463.21
2018-12-09T23:23:01.616Z,99477.34
2018-12-09T23:25:31.340Z,99485.61
2018-12-09T23:28:01.633Z,99487.38
2018-12-09T23:30:31.421Z,99487.45
2018-12-09T23:33:01.065Z,99488.80
2018-12-09T23:35:30.793Z,99487.06
2018-12-09T23:38:00.558Z,99490.30
